Time;durP1;ratioP1;P1;durP2;ratioP2;P2;SDS_P1;SDS_P2;PMS_P1;PMS_P2;Temp;Humidity;BMP_temperature;BMP_pressure;BME280_temperature;BME280_humidity;BME280_pressure;Samples;Min_cycle;Max_cycle;Signal;HPM_P1;HPM_P2
2022/03/02 00:01:58;;;;;;;33.90;21.70;;;6.30;96.50;;;;;;5099648;27;38557;-59
2022/03/02 00:04:27;;;;;;;35.67;22.77;;;6.40;96.50;;;;;;5100186;27;36845;-60
2022/03/02 00:06:55;;;;;;;33.35;20.17;;;6.30;96.40;;;;;;5098888;27;37818;-59
2022/03/02 00:09:22;;;;;;;33.65;21.77;;;6.30;96.40;;;;;;5097672;27;36301;-60
2022/03/02 00:11:49;;;;;;;30.95;20.02;;;6.40;96.40;;;;;;5096778;27;38786;-59
2022/03/02 00:14:16;;;;;;;33.03;21.48;;;6.30;96.30;;;;;;5098254;27;36700;-61
2022/03/02 00:16:44;;;;;;;32.20;21.75;;;6.40;96.40;;;;;;5098052;27;40854;-60
2022/03/02 00:19:11;;;;;;;33.97;21.70;;;6.30;96.50;;;;;;5100966;27;37029;-60
2022/03/02 00:21:40;;;;;;;32.75;21.88;;;6.60;96.60;;;;;;5099220;27;36321;-60
2022/03/02 00:24:08;;;;;;;35.45;22.17;;;6.40;96.70;;;;;;5100025;27;38011;-60
2022/03/02 00:26:35;;;;;;;38.38;22.48;;;6.40;96.70;;;;;;5099137;27;37444;-60
2022/03/02 00:29:05;;;;;;;34.00;21.45;;;6.40;96.60;;;;;;5100632;27;36663;-60
2022/03/02 00:31:32;;;;;;;36.10;22.67;;;6.60;96.50;;;;;;5099929;27;37209;-60
2022/03/02 00:34:00;;;;;;;31.25;20.60;;;6.40;96.40;;;;;;5099702;27;39087;-60
2022/03/02 00:36:27;;;;;;;31.83;20.55;;;6.40;96.50;;;;;;5097339;27;37961;-60
2022/03/02 00:38:56;;;;;;;33.60;21.52;;;6.40;96.60;;;;;;5099901;27;39131;-60
2022/03/02 00:41:23;;;;;;;35.75;20.40;;;6.40;96.60;;;;;;5099597;27;38962;-60
2022/03/02 00:43:51;;;;;;;36.50;21.98;;;6.30;96.80;;;;;;5099734;27;38538;-60
2022/03/02 00:46:19;;;;;;;34.80;21.85;;;6.30;96.90;;;;;;5099058;27;38498;-60
2022/03/02 00:48:47;;;;;;;32.92;21.30;;;6.30;96.90;;;;;;5100158;27;35507;-60
2022/03/02 00:51:14;;;;;;;33.50;21.55;;;6.20;96.80;;;;;;5099096;27;37661;-60
2022/03/02 00:53:42;;;;;;;33.38;21.70;;;6.20;96.80;;;;;;5098853;27;37980;-60
2022/03/02 00:56:11;;;;;;;34.00;23.15;;;6.20;96.90;;;;;;5098233;27;39177;-60
2022/03/02 00:58:39;;;;;;;35.42;22.83;;;6.10;96.90;;;;;;5099181;27;38197;-60
2022/03/02 01:01:06;;;;;;;32.90;20.88;;;6.10;96.90;;;;;;5098902;27;38354;-60
2022/03/02 01:03:33;;;;;;;33.25;21.60;;;6.10;96.90;;;;;;5099349;27;37012;-60
2022/03/02 01:06:01;;;;;;;34.10;22.23;;;6.10;96.90;;;;;;5095013;27;37613;-60
2022/03/02 01:08:29;;;;;;;35.85;22.90;;;6.10;96.90;;;;;;5098107;27;36805;-60
2022/03/02 01:10:56;;;;;;;35.80;22.90;;;6.10;96.80;;;;;;5098718;27;37543;-59
2022/03/02 01:13:25;;;;;;;35.10;22.35;;;6.10;96.80;;;;;;5097819;27;37936;-60
2022/03/02 01:15:52;;;;;;;36.03;21.83;;;6.00;96.70;;;;;;5098853;27;37866;-60
2022/03/02 01:18:20;;;;;;;32.78;22.40;;;6.00;96.80;;;;;;5098840;27;37052;-59
2022/03/02 01:20:47;;;;;;;33.53;22.38;;;6.00;96.80;;;;;;5096601;27;36367;-60
2022/03/02 01:23:14;;;;;;;34.00;22.15;;;6.00;96.80;;;;;;5097598;27;38153;-60
2022/03/02 01:25:42;;;;;;;37.83;23.55;;;6.00;96.80;;;;;;5097884;27;37662;-59
2022/03/02 01:28:09;;;;;;;37.28;23.95;;;5.90;96.80;;;;;;5098525;27;36055;-60
2022/03/02 01:30:38;;;;;;;35.35;22.50;;;6.00;96.90;;;;;;5098194;27;36910;-60
2022/03/02 01:33:05;;;;;;;34.58;22.95;;;5.90;96.80;;;;;;5097572;27;37979;-60
2022/03/02 01:35:32;;;;;;;32.95;21.92;;;5.90;96.80;;;;;;5095469;27;36680;-60
2022/03/02 01:38:00;;;;;;;36.97;22.92;;;5.90;96.80;;;;;;5096349;27;36795;-60
2022/03/02 01:40:27;;;;;;;40.35;23.13;;;5.90;96.90;;;;;;5096861;27;37937;-60
2022/03/02 01:42:54;;;;;;;37.65;23.90;;;5.90;96.90;;;;;;5096645;27;36847;-60
2022/03/02 01:45:22;;;;;;;39.22;23.92;;;5.90;96.90;;;;;;5097668;27;38455;-60
2022/03/02 01:47:50;;;;;;;35.92;23.90;;;5.90;96.80;;;;;;5097892;27;35464;-59
2022/03/02 01:50:18;;;;;;;36.58;22.98;;;5.90;96.70;;;;;;5095187;27;37726;-56
2022/03/02 01:52:46;;;;;;;37.45;23.27;;;5.90;96.80;;;;;;5097445;27;38362;-56
2022/03/02 01:55:14;;;;;;;35.67;23.02;;;5.90;96.70;;;;;;5098134;27;39096;-56
2022/03/02 01:57:42;;;;;;;37.28;24.23;;;5.90;96.70;;;;;;5097603;27;36150;-56
2022/03/02 02:00:13;;;;;;;41.58;24.90;;;5.90;96.60;;;;;;5098472;27;39275;-56
2022/03/02 02:02:41;;;;;;;37.92;23.92;;;5.90;96.50;;;;;;5097704;27;38595;-56
2022/03/02 02:05:10;;;;;;;38.55;23.17;;;5.80;96.30;;;;;;5097121;27;36749;-56
2022/03/02 02:07:37;;;;;;;37.22;23.42;;;5.80;96.20;;;;;;5096064;27;36713;-56
2022/03/02 02:10:06;;;;;;;36.83;22.85;;;5.80;96.10;;;;;;5097743;27;36334;-56
2022/03/02 02:12:34;;;;;;;35.67;23.65;;;5.70;96.00;;;;;;5096874;27;38017;-56
2022/03/02 02:15:02;;;;;;;36.38;24.08;;;5.70;96.00;;;;;;5097283;27;37634;-56
2022/03/02 02:17:29;;;;;;;37.30;23.10;;;5.70;96.00;;;;;;5097324;27;36847;-56
2022/03/02 02:19:56;;;;;;;34.60;21.95;;;5.70;95.80;;;;;;5096432;27;37483;-55
2022/03/02 02:22:25;;;;;;;34.90;23.50;;;5.70;95.70;;;;;;5095313;27;37742;-55
2022/03/02 02:24:52;;;;;;;38.28;23.73;;;5.60;95.60;;;;;;5098054;27;38016;-56
2022/03/02 02:27:20;;;;;;;35.88;22.85;;;5.60;95.70;;;;;;5096975;27;36590;-56
2022/03/02 02:29:49;;;;;;;35.25;22.95;;;5.60;95.80;;;;;;5097667;27;38907;-56
2022/03/02 02:32:17;;;;;;;38.47;24.00;;;5.60;95.70;;;;;;5096055;27;38839;-55
2022/03/02 02:34:44;;;;;;;40.17;24.63;;;5.50;95.80;;;;;;5096971;27;37831;-56
2022/03/02 02:37:13;;;;;;;40.67;24.83;;;5.40;95.80;;;;;;5096386;27;37550;-55
2022/03/02 02:39:41;;;;;;;40.45;24.65;;;5.40;95.90;;;;;;5097986;27;37181;-55
2022/03/02 02:42:10;;;;;;;38.67;24.38;;;5.30;96.20;;;;;;5097531;27;38142;-55
2022/03/02 02:44:37;;;;;;;42.45;24.83;;;5.20;96.40;;;;;;5096469;27;39387;-54
2022/03/02 02:47:05;;;;;;;40.15;24.83;;;5.10;96.50;;;;;;5097237;27;36844;-56
2022/03/02 02:49:33;;;;;;;41.13;25.20;;;5.00;96.80;;;;;;5096358;27;37176;-55
2022/03/02 02:52:00;;;;;;;45.28;24.48;;;5.00;96.90;;;;;;5095697;27;39218;-56
2022/03/02 02:54:27;;;;;;;43.50;25.58;;;4.90;97.30;;;;;;5097536;27;37949;-55
2022/03/02 02:56:56;;;;;;;38.97;25.33;;;5.00;97.50;;;;;;5096854;27;36906;-55
2022/03/02 02:59:24;;;;;;;39.72;24.70;;;4.80;97.60;;;;;;5097395;27;38976;-56
2022/03/02 03:01:51;;;;;;;41.90;25.30;;;4.70;97.60;;;;;;5098850;27;37233;-56
2022/03/02 03:04:18;;;;;;;43.92;26.42;;;4.70;97.80;;;;;;5100558;27;38175;-56
2022/03/02 03:06:46;;;;;;;40.65;25.95;;;4.60;97.80;;;;;;5099248;27;36761;-56
2022/03/02 03:09:16;;;;;;;43.17;25.15;;;4.60;98.00;;;;;;5102078;27;39113;-55
2022/03/02 03:11:44;;;;;;;42.25;26.42;;;4.70;98.00;;;;;;5100865;27;39729;-54
2022/03/02 03:14:15;;;;;;;38.97;24.42;;;4.60;98.00;;;;;;5101007;27;38507;-56
2022/03/02 03:16:43;;;;;;;46.08;27.02;;;4.60;98.00;;;;;;5100151;27;38961;-56
2022/03/02 03:19:11;;;;;;;43.17;25.30;;;4.60;98.00;;;;;;5100527;27;37450;-56
2022/03/02 03:21:39;;;;;;;43.95;26.02;;;4.50;98.00;;;;;;5100478;27;37140;-55
2022/03/02 03:24:06;;;;;;;42.45;25.40;;;4.50;98.00;;;;;;5100692;27;37966;-55
2022/03/02 03:26:34;;;;;;;43.30;25.27;;;4.50;98.10;;;;;;5100922;27;38574;-56
2022/03/02 03:29:01;;;;;;;42.97;25.48;;;4.50;98.20;;;;;;5100150;27;36396;-56
2022/03/02 03:31:30;;;;;;;45.80;26.73;;;4.50;98.30;;;;;;5100283;27;38156;-56
2022/03/02 03:33:57;;;;;;;40.97;25.95;;;4.50;98.30;;;;;;5100922;27;39253;-56
2022/03/02 03:36:24;;;;;;;41.50;26.35;;;4.40;98.30;;;;;;5099183;27;37271;-55
2022/03/02 03:38:52;;;;;;;42.55;26.27;;;4.40;98.40;;;;;;5100373;27;36337;-56
2022/03/02 03:41:19;;;;;;;45.47;26.88;;;4.40;98.40;;;;;;5099000;27;39108;-55
2022/03/02 03:43:47;;;;;;;48.05;26.92;;;4.40;98.50;;;;;;5097875;27;36680;-56
2022/03/02 03:46:14;;;;;;;45.63;25.40;;;4.40;98.40;;;;;;5097364;27;36983;-56
2022/03/02 03:48:43;;;;;;;44.50;26.90;;;4.40;98.50;;;;;;5099718;27;38148;-56
2022/03/02 03:51:10;;;;;;;50.28;28.63;;;4.30;98.60;;;;;;5098490;27;38229;-55
2022/03/02 03:53:37;;;;;;;40.50;25.05;;;4.20;98.70;;;;;;5099053;27;39089;-55
2022/03/02 03:56:08;;;;;;;44.03;26.20;;;4.20;98.80;;;;;;5100099;27;35187;-56
2022/03/02 03:58:35;;;;;;;45.90;27.60;;;4.20;98.90;;;;;;5099315;27;37574;-55
2022/03/02 04:01:03;;;;;;;47.25;27.75;;;4.10;98.80;;;;;;5098349;27;36904;-55
2022/03/02 04:03:30;;;;;;;43.55;26.60;;;4.20;98.80;;;;;;5100248;27;39056;-56
2022/03/02 04:05:59;;;;;;;40.63;24.58;;;4.10;98.90;;;;;;5099390;27;37338;-55
2022/03/02 04:08:26;;;;;;;40.65;24.65;;;4.10;98.80;;;;;;5098155;27;38816;-55
2022/03/02 04:10:53;;;;;;;40.53;23.95;;;4.10;98.80;;;;;;5099454;27;36924;-56
2022/03/02 04:13:21;;;;;;;44.22;23.92;;;4.10;98.80;;;;;;5098680;27;37908;-56
2022/03/02 04:15:48;;;;;;;47.90;26.92;;;4.10;98.90;;;;;;5099242;27;36903;-55
2022/03/02 04:18:16;;;;;;;45.50;27.63;;;4.10;99.20;;;;;;5099088;27;36379;-56
2022/03/02 04:20:43;;;;;;;48.83;27.58;;;4.00;99.10;;;;;;5099376;27;39112;-55
2022/03/02 04:23:12;;;;;;;44.35;26.33;;;4.00;99.30;;;;;;5096259;27;38279;-56
2022/03/02 04:25:40;;;;;;;41.63;26.17;;;4.00;99.40;;;;;;5098094;27;36614;-55
2022/03/02 04:28:07;;;;;;;42.25;26.05;;;4.00;99.30;;;;;;5098065;27;37710;-55
2022/03/02 04:30:35;;;;;;;46.22;26.70;;;4.00;99.40;;;;;;5097886;27;36832;-55
2022/03/02 04:33:02;;;;;;;41.60;25.85;;;4.00;99.50;;;;;;5098414;27;37902;-55
2022/03/02 04:35:31;;;;;;;46.40;26.90;;;4.00;99.20;;;;;;5099615;27;37652;-55
2022/03/02 04:37:59;;;;;;;44.80;27.08;;;3.90;99.40;;;;;;5098120;27;37603;-56
2022/03/02 04:40:28;;;;;;;42.50;26.23;;;3.90;99.10;;;;;;5100398;27;37169;-55
2022/03/02 04:42:55;;;;;;;43.28;24.75;;;4.20;99.30;;;;;;5099353;27;38444;-55
2022/03/02 04:45:27;;;;;;;42.53;26.02;;;3.90;99.10;;;;;;5099857;27;35500;-56
2022/03/02 04:47:55;;;;;;;41.00;25.40;;;3.80;99.10;;;;;;5098723;27;36535;-56
2022/03/02 04:50:23;;;;;;;42.58;25.92;;;3.90;99.30;;;;;;5099083;27;38193;-56
2022/03/02 04:52:51;;;;;;;40.58;23.90;;;3.90;99.20;;;;;;5097488;27;37977;-56
2022/03/02 04:55:19;;;;;;;42.58;26.67;;;3.80;99.10;;;;;;5099534;27;37999;-54
2022/03/02 04:57:51;;;;;;;42.38;26.40;;;3.90;99.10;;;;;;5098804;27;38152;-55
2022/03/02 05:00:21;;;;;;;42.15;24.52;;;3.80;99.10;;;;;;5099572;27;38092;-56
2022/03/02 05:02:48;;;;;;;44.15;25.52;;;3.80;99.00;;;;;;5098278;27;36630;-56
2022/03/02 05:05:18;;;;;;;48.03;25.58;;;3.70;99.30;;;;;;5098846;27;37768;-56
2022/03/02 05:07:46;;;;;;;43.78;26.67;;;3.70;99.20;;;;;;5096321;27;37330;-56
2022/03/02 05:10:14;;;;;;;40.30;24.40;;;3.60;99.40;;;;;;5099125;27;37812;-56
2022/03/02 05:12:42;;;;;;;43.10;25.77;;;3.60;99.30;;;;;;5097379;27;39913;-55
2022/03/02 05:15:13;;;;;;;40.20;24.90;;;3.70;99.40;;;;;;5097667;27;37274;-55
2022/03/02 05:17:41;;;;;;;43.65;25.65;;;3.70;99.20;;;;;;5097897;27;37471;-55
2022/03/02 05:20:11;;;;;;;43.05;27.88;;;3.70;99.10;;;;;;5099129;27;38128;-54
2022/03/02 05:22:38;;;;;;;39.83;25.73;;;3.70;99.00;;;;;;5096074;27;37914;-55
2022/03/02 05:25:08;;;;;;;38.90;24.30;;;3.60;98.90;;;;;;5099772;27;37266;-55
2022/03/02 05:27:35;;;;;;;39.97;24.45;;;3.60;99.00;;;;;;5097569;27;37726;-56
2022/03/02 05:30:05;;;;;;;46.58;26.40;;;3.60;98.90;;;;;;5098745;27;38758;-56
2022/03/02 05:32:33;;;;;;;44.90;26.08;;;3.60;98.90;;;;;;5098327;27;40301;-56
2022/03/02 05:35:01;;;;;;;44.17;25.67;;;3.60;99.10;;;;;;5099124;27;36837;-55
2022/03/02 05:37:28;;;;;;;41.42;24.23;;;3.50;99.00;;;;;;5096565;27;37730;-56
2022/03/02 05:39:56;;;;;;;42.97;25.42;;;3.50;99.10;;;;;;5099023;27;36854;-55
2022/03/02 05:42:23;;;;;;;37.63;23.80;;;3.50;99.10;;;;;;5099125;27;39592;-55
2022/03/02 05:44:50;;;;;;;44.05;25.40;;;3.50;99.10;;;;;;5097116;27;37351;-56
2022/03/02 05:47:18;;;;;;;42.60;25.13;;;3.50;99.10;;;;;;5097661;27;39000;-56
2022/03/02 05:49:47;;;;;;;42.50;24.88;;;3.50;99.10;;;;;;5097204;27;38840;-55
2022/03/02 05:52:14;;;;;;;40.38;23.83;;;3.50;99.10;;;;;;5095535;27;37867;-54
2022/03/02 05:54:41;;;;;;;39.42;24.52;;;3.50;99.10;;;;;;5095895;27;37332;-56
2022/03/02 05:57:09;;;;;;;39.92;24.23;;;3.40;99.10;;;;;;5097418;27;39015;-55
2022/03/02 05:59:36;;;;;;;41.63;24.15;;;3.40;99.20;;;;;;5098214;27;38717;-55
2022/03/02 06:02:04;;;;;;;40.75;23.50;;;3.40;99.20;;;;;;5097204;27;37677;-56
2022/03/02 06:04:31;;;;;;;40.70;25.95;;;3.40;99.20;;;;;;5098024;27;35462;-56
2022/03/02 06:07:00;;;;;;;41.45;25.50;;;3.30;99.10;;;;;;5098407;27;37545;-55
2022/03/02 06:09:27;;;;;;;37.95;23.52;;;3.30;99.00;;;;;;5097651;27;38621;-55
2022/03/02 06:11:55;;;;;;;40.58;24.45;;;3.30;99.10;;;;;;5098303;27;37775;-55
2022/03/02 06:14:23;;;;;;;41.78;23.65;;;3.20;99.00;;;;;;5098643;27;35577;-55
2022/03/02 06:16:51;;;;;;;39.75;23.95;;;3.30;99.10;;;;;;5098195;27;38622;-55
2022/03/02 06:19:20;;;;;;;37.58;23.08;;;3.30;99.10;;;;;;5093916;27;39969;-56
2022/03/02 06:21:48;;;;;;;37.17;22.83;;;3.20;99.10;;;;;;5096774;27;37828;-55
2022/03/02 06:24:18;;;;;;;38.42;24.00;;;3.30;99.10;;;;;;5096127;27;37155;-56
2022/03/02 06:26:46;;;;;;;40.47;24.23;;;3.20;99.00;;;;;;5097536;27;36417;-55
2022/03/02 06:29:13;;;;;;;37.45;23.25;;;3.20;99.00;;;;;;5097658;27;36945;-56
2022/03/02 06:31:41;;;;;;;41.28;25.15;;;3.20;99.10;;;;;;5097663;27;38519;-55
2022/03/02 06:34:08;;;;;;;39.88;24.15;;;3.10;99.10;;;;;;5096973;27;37078;-56
2022/03/02 06:36:35;;;;;;;40.28;23.17;;;3.20;99.10;;;;;;5096531;27;37346;-56
2022/03/02 06:39:04;;;;;;;36.58;22.67;;;3.20;99.10;;;;;;5096872;27;40813;-55
2022/03/02 06:41:44;;;;;;;40.30;23.60;;;3.20;99.00;;;;;;5097154;27;40084;-56
2022/03/02 06:44:19;;;;;;;35.83;23.08;;;3.30;99.10;;;;;;5096113;27;36842;-56
2022/03/02 06:46:55;;;;;;;45.35;24.45;;;3.40;99.00;;;;;;5096433;27;39363;-56
2022/03/02 06:49:27;;;;;;;38.47;22.58;;;3.40;99.00;;;;;;5096335;27;36961;-56
2022/03/02 06:51:59;;;;;;;39.53;23.40;;;3.50;98.90;;;;;;5095611;27;37692;-56
2022/03/02 06:54:30;;;;;;;38.28;22.17;;;3.60;98.80;;;;;;5096758;27;36520;-56
2022/03/02 06:57:02;;;;;;;44.25;25.10;;;3.70;98.50;;;;;;5097516;27;38375;-56
2022/03/02 06:59:35;;;;;;;40.05;24.08;;;3.80;98.30;;;;;;5097965;27;38355;-56
2022/03/02 07:02:04;;;;;;;40.28;23.50;;;3.90;98.20;;;;;;5097830;27;37228;-56
2022/03/02 07:04:35;;;;;;;40.55;22.83;;;3.90;98.10;;;;;;5098186;27;37471;-56
2022/03/02 07:07:04;;;;;;;39.83;23.98;;;3.90;98.10;;;;;;5095322;27;36389;-59
2022/03/02 07:09:32;;;;;;;37.25;23.75;;;4.00;98.10;;;;;;5095150;27;38889;-59
2022/03/02 07:12:02;;;;;;;40.33;24.20;;;4.10;97.90;;;;;;5094581;27;37437;-56
2022/03/02 07:14:31;;;;;;;37.22;22.88;;;4.30;97.50;;;;;;5094082;27;37142;-56
2022/03/02 07:16:59;;;;;;;36.05;23.33;;;4.60;97.00;;;;;;5094374;27;38225;-57
2022/03/02 07:19:27;;;;;;;39.38;23.05;;;4.80;96.40;;;;;;5094602;27;39240;-56
2022/03/02 07:21:55;;;;;;;40.15;23.98;;;5.00;95.90;;;;;;5095113;27;37634;-56
2022/03/02 07:24:25;;;;;;;37.90;23.60;;;5.10;95.60;;;;;;5096146;27;38401;-59
2022/03/02 07:26:54;;;;;;;40.35;25.08;;;5.20;95.50;;;;;;5095931;27;37383;-59
2022/03/02 07:29:26;;;;;;;39.00;23.38;;;5.20;95.40;;;;;;5096890;27;37523;-60
2022/03/02 07:31:57;;;;;;;39.10;23.70;;;5.20;95.40;;;;;;5095304;27;38244;-59
2022/03/02 07:34:26;;;;;;;36.10;23.67;;;5.20;95.40;;;;;;5096236;27;35635;-59
2022/03/02 07:36:55;;;;;;;37.40;23.88;;;5.30;95.50;;;;;;5094256;27;36369;-60
2022/03/02 07:39:23;;;;;;;36.75;23.65;;;5.30;95.30;;;;;;5095972;27;36890;-60
2022/03/02 07:41:50;;;;;;;37.95;24.35;;;5.40;95.30;;;;;;5094367;27;37905;-59
2022/03/02 07:44:19;;;;;;;37.47;23.83;;;5.30;95.30;;;;;;5096964;27;20135;-60
2022/03/02 07:46:48;;;;;;;40.80;24.48;;;5.30;95.40;;;;;;5097208;27;42106;-59
2022/03/02 07:49:15;;;;;;;38.67;24.42;;;5.30;95.50;;;;;;5098714;27;38055;-60
2022/03/02 07:51:44;;;;;;;37.40;23.48;;;5.30;95.40;;;;;;5097060;27;37644;-59
2022/03/02 07:54:15;;;;;;;42.30;24.10;;;5.30;95.40;;;;;;5099475;27;36876;-59
2022/03/02 07:56:44;;;;;;;42.65;25.80;;;5.40;95.30;;;;;;5098547;27;38526;-60
2022/03/02 07:59:11;;;;;;;36.88;23.88;;;5.50;95.30;;;;;;5099354;27;38115;-60
2022/03/02 08:01:39;;;;;;;40.10;25.80;;;5.70;95.30;;;;;;5098511;27;37516;-60
2022/03/02 08:04:09;;;;;;;39.58;25.60;;;5.80;95.30;;;;;;5098999;27;37094;-59
2022/03/02 08:06:39;;;;;;;42.58;26.17;;;5.90;95.20;;;;;;5098448;27;38730;-59
2022/03/02 08:09:08;;;;;;;41.15;26.05;;;6.00;95.20;;;;;;5097426;27;38491;-60
2022/03/02 08:11:38;;;;;;;43.05;26.58;;;6.10;95.00;;;;;;5097123;27;36777;-59
2022/03/02 08:14:06;;;;;;;39.83;25.65;;;6.20;94.90;;;;;;5097839;27;38151;-59
2022/03/02 08:16:34;;;;;;;37.50;24.25;;;6.30;94.80;;;;;;5098463;27;39077;-59
2022/03/02 08:19:03;;;;;;;39.05;24.05;;;6.50;94.70;;;;;;5098111;27;39257;-60
2022/03/02 08:21:35;;;;;;;38.25;24.73;;;6.70;94.10;;;;;;5098099;27;37997;-59
2022/03/02 08:24:05;;;;;;;39.75;25.23;;;6.80;93.40;;;;;;5097835;27;36705;-59
2022/03/02 08:26:34;;;;;;;36.08;25.08;;;6.80;93.40;;;;;;5099009;27;36504;-59
2022/03/02 08:29:04;;;;;;;45.50;26.83;;;7.00;93.40;;;;;;5100095;27;36819;-60
2022/03/02 08:31:32;;;;;;;40.13;26.48;;;7.30;92.70;;;;;;5099507;27;38802;-59
2022/03/02 08:34:01;;;;;;;38.50;25.90;;;7.60;91.80;;;;;;5099598;27;37349;-59
2022/03/02 08:36:33;;;;;;;40.70;25.13;;;7.90;90.40;;;;;;5097766;27;38057;-59
2022/03/02 08:39:04;;;;;;;39.15;25.80;;;8.20;87.30;;;;;;5096719;27;38512;-59
2022/03/02 08:41:32;;;;;;;40.75;25.70;;;8.50;85.40;;;;;;5096632;27;38094;-60
2022/03/02 08:44:00;;;;;;;38.35;24.38;;;8.80;81.70;;;;;;5097045;27;37041;-59
2022/03/02 08:46:28;;;;;;;39.55;24.67;;;9.20;79.30;;;;;;5098075;27;37711;-59
2022/03/02 08:48:56;;;;;;;37.95;23.52;;;9.40;75.20;;;;;;5099600;27;38283;-60
2022/03/02 08:51:26;;;;;;;43.33;24.38;;;9.70;74.50;;;;;;5098685;27;36591;-59
2022/03/02 08:53:55;;;;;;;35.30;22.80;;;9.70;70.50;;;;;;5098944;27;37017;-59
2022/03/02 08:56:25;;;;;;;36.90;24.40;;;9.80;72.80;;;;;;5099314;27;38444;-59
2022/03/02 08:58:54;;;;;;;35.08;22.65;;;9.90;73.60;;;;;;5099473;27;38432;-60
2022/03/02 09:01:23;;;;;;;35.60;23.90;;;10.00;71.60;;;;;;5098265;27;38641;-60
2022/03/02 09:03:53;;;;;;;37.92;24.52;;;10.10;73.00;;;;;;5099629;27;36787;-59
2022/03/02 09:06:21;;;;;;;33.95;23.88;;;10.30;71.80;;;;;;5097941;27;36529;-60
2022/03/02 09:08:49;;;;;;;33.83;23.60;;;10.40;72.20;;;;;;5098461;27;39460;-59
2022/03/02 09:11:16;;;;;;;34.42;22.42;;;10.40;72.10;;;;;;5099190;27;43398;-59
2022/03/02 09:13:45;;;;;;;35.90;24.52;;;10.30;72.10;;;;;;5098125;27;37168;-59
2022/03/02 09:16:13;;;;;;;36.25;23.80;;;10.40;72.90;;;;;;5098958;27;37712;-59
2022/03/02 09:18:40;;;;;;;34.70;23.75;;;10.40;74.30;;;;;;5098092;27;36854;-60
2022/03/02 09:21:08;;;;;;;34.65;23.25;;;10.50;72.60;;;;;;5097995;27;38342;-60
2022/03/02 09:23:41;;;;;;;34.97;24.00;;;10.40;71.10;;;;;;5099090;27;37017;-60
2022/03/02 09:26:12;;;;;;;37.13;22.52;;;10.40;71.30;;;;;;5098791;27;36339;-60
2022/03/02 09:28:41;;;;;;;34.08;22.65;;;10.60;70.50;;;;;;5098997;27;39277;-59
2022/03/02 09:31:13;;;;;;;33.78;23.35;;;10.90;68.70;;;;;;5098216;27;36292;-59
2022/03/02 09:33:42;;;;;;;30.70;22.30;;;11.20;66.20;;;;;;5099108;27;38643;-59
2022/03/02 09:36:12;;;;;;;31.05;22.98;;;11.50;64.70;;;;;;5098402;27;38198;-60
2022/03/02 09:38:40;;;;;;;34.10;23.80;;;11.80;62.20;;;;;;5098429;27;38743;-59
2022/03/02 09:41:10;;;;;;;34.10;23.40;;;12.10;61.70;;;;;;5099748;27;40611;-60
2022/03/02 09:43:38;;;;;;;32.35;23.08;;;12.30;60.40;;;;;;5098402;27;35512;-60
2022/03/02 09:46:07;;;;;;;33.50;23.15;;;12.40;59.40;;;;;;5098872;27;37124;-60
2022/03/02 09:48:41;;;;;;;30.88;22.15;;;12.50;59.10;;;;;;5099149;27;35884;-59
2022/03/02 09:51:09;;;;;;;33.15;24.23;;;12.50;57.80;;;;;;5097154;27;37840;-60
2022/03/02 09:53:37;;;;;;;32.50;22.20;;;12.40;58.20;;;;;;5097876;27;37018;-60
2022/03/02 09:56:06;;;;;;;33.10;23.15;;;12.40;58.60;;;;;;5097450;27;39552;-59
2022/03/02 09:58:38;;;;;;;32.92;22.60;;;12.50;58.40;;;;;;5098938;27;37597;-60
2022/03/02 10:01:14;;;;;;;33.10;22.00;;;12.40;56.60;;;;;;5096899;27;36470;-60
2022/03/02 10:03:46;;;;;;;31.70;21.58;;;12.50;57.60;;;;;;5094230;27;39131;-59
2022/03/02 10:06:17;;;;;;;31.15;20.85;;;12.60;57.70;;;;;;5094296;27;39042;-60
2022/03/02 10:08:48;;;;;;;35.55;23.20;;;12.50;57.60;;;;;;5093649;27;37939;-59
2022/03/02 10:11:19;;;;;;;32.30;23.77;;;12.50;57.50;;;;;;5096439;27;36831;-60
2022/03/02 10:13:47;;;;;;;37.33;23.50;;;12.40;57.10;;;;;;5097447;27;35719;-59
2022/03/02 10:16:22;;;;;;;34.10;22.58;;;12.70;57.40;;;;;;5097115;27;37863;-59
2022/03/02 10:18:56;;;;;;;31.02;20.02;;;13.00;55.50;;;;;;5098224;27;38789;-61
2022/03/02 10:21:28;;;;;;;31.13;21.65;;;13.20;55.10;;;;;;5098665;27;38011;-59
2022/03/02 10:23:59;;;;;;;33.40;22.35;;;13.30;54.20;;;;;;5099670;27;35553;-60
2022/03/02 10:26:28;;;;;;;31.27;22.75;;;13.40;54.70;;;;;;5098269;27;37697;-60
2022/03/02 10:29:03;;;;;;;34.63;22.80;;;13.60;54.60;;;;;;5099114;27;36981;-59
2022/03/02 10:31:43;;;;;;;31.75;22.33;;;13.60;52.30;;;;;;5097216;27;40719;-59
2022/03/02 10:34:30;;;;;;;35.65;23.17;;;13.90;52.30;;;;;;5098421;27;37988;-60
2022/03/02 10:37:13;;;;;;;33.10;23.08;;;14.00;51.70;;;;;;5095009;27;38067;-59
2022/03/02 10:40:05;;;;;;;30.83;22.10;;;14.00;51.90;;;;;;5097277;27;38302;-60
2022/03/02 10:42:36;;;;;;;30.98;20.90;;;13.80;52.00;;;;;;5096521;27;38326;-60
2022/03/02 10:45:08;;;;;;;28.63;21.02;;;13.70;52.90;;;;;;5094221;27;37671;-59
2022/03/02 10:47:39;;;;;;;32.83;21.05;;;13.50;52.60;;;;;;5096488;27;37899;-59
2022/03/02 10:50:09;;;;;;;27.98;20.60;;;13.30;51.40;;;;;;5097560;27;39580;-60
2022/03/02 10:52:39;;;;;;;29.02;20.40;;;13.50;52.90;;;;;;5096696;27;43237;-60
2022/03/02 10:55:10;;;;;;;27.27;20.52;;;13.50;52.30;;;;;;5098268;27;37295;-60
2022/03/02 10:57:38;;;;;;;27.00;20.63;;;13.70;51.70;;;;;;5097858;27;37044;-59
2022/03/02 11:00:13;;;;;;;30.52;21.10;;;13.80;51.90;;;;;;5097526;27;36865;-60
2022/03/02 11:02:42;;;;;;;28.67;20.52;;;13.80;52.20;;;;;;5096683;27;37263;-60
2022/03/02 11:05:13;;;;;;;28.50;21.13;;;13.90;52.20;;;;;;5098766;27;35453;-60
2022/03/02 11:07:41;;;;;;;30.70;21.40;;;13.90;51.60;;;;;;5095395;27;36601;-60
2022/03/02 11:10:12;;;;;;;27.40;19.70;;;14.00;51.40;;;;;;5095857;27;36960;-60
2022/03/02 11:12:42;;;;;;;30.35;20.63;;;13.80;49.60;;;;;;5096341;27;37964;-59
2022/03/02 11:15:11;;;;;;;27.65;20.92;;;13.90;50.00;;;;;;5097596;27;35629;-60
2022/03/02 11:17:54;;;;;;;28.67;20.48;;;13.90;49.80;;;;;;5097960;27;37821;-60
2022/03/02 11:20:25;;;;;;;29.17;19.73;;;13.90;49.40;;;;;;5091767;27;38164;-59
2022/03/02 11:22:55;;;;;;;26.77;18.52;;;14.00;49.10;;;;;;5098557;27;39742;-60
2022/03/02 11:25:43;;;;;;;29.23;19.98;;;14.10;49.50;;;;;;5100888;27;36584;-60
2022/03/02 11:28:15;;;;;;;28.85;19.85;;;14.20;47.20;;;;;;5098803;27;38001;-60
2022/03/02 11:30:50;;;;;;;32.10;19.13;;;14.50;47.70;;;;;;5098774;27;36007;-60
2022/03/02 11:33:23;;;;;;;31.00;18.52;;;14.90;46.40;;;;;;5098632;27;37939;-60
2022/03/02 11:35:52;;;;;;;26.20;18.33;;;15.10;46.00;;;;;;5099618;27;36586;-60
2022/03/02 11:38:22;;;;;;;27.75;18.35;;;15.30;44.20;;;;;;5099995;27;38635;-60
2022/03/02 11:40:50;;;;;;;25.10;18.10;;;15.40;44.10;;;;;;5099905;27;38124;-60
2022/03/02 11:43:20;;;;;;;26.70;18.52;;;15.60;44.00;;;;;;5097753;27;39088;-60
2022/03/02 11:45:47;;;;;;;26.15;18.55;;;15.70;43.90;;;;;;5098410;27;36985;-59
2022/03/02 11:48:16;;;;;;;26.95;17.08;;;15.50;43.60;;;;;;5099583;27;38526;-60
2022/03/02 11:53:42;;;;;;;25.13;15.82;;;15.40;44.30;;;;;;5087634;27;20896;-57
2022/03/02 11:56:13;;;;;;;27.63;17.67;;;15.00;44.20;;;;;;5088042;27;35859;-59
2022/03/02 11:59:05;;;;;;;27.27;17.38;;;14.50;45.70;;;;;;5086199;27;38515;-59
2022/03/02 12:01:46;;;;;;;27.73;18.45;;;14.10;46.40;;;;;;5087651;27;38002;-59
2022/03/02 12:04:15;;;;;;;26.77;16.92;;;13.80;46.90;;;;;;5085918;27;37573;-59
2022/03/02 12:06:46;;;;;;;28.92;17.60;;;13.60;48.40;;;;;;5088061;27;36023;-59
2022/03/02 12:09:29;;;;;;;25.42;18.58;;;13.30;48.60;;;;;;5088366;27;37314;-59
2022/03/02 12:12:15;;;;;;;25.52;16.98;;;13.10;49.50;;;;;;5088649;27;39506;-58
2022/03/02 12:14:49;;;;;;;23.25;15.68;;;13.10;50.70;;;;;;5088783;27;37038;-59
2022/03/02 12:17:21;;;;;;;25.45;17.52;;;13.10;50.90;;;;;;5090622;27;37036;-59
2022/03/02 12:19:51;;;;;;;26.50;17.60;;;13.00;51.10;;;;;;5089711;27;35836;-58
2022/03/02 12:22:19;;;;;;;26.50;17.27;;;12.90;50.70;;;;;;5088423;27;37077;-59
2022/03/02 12:24:49;;;;;;;23.27;16.20;;;12.80;50.30;;;;;;5091369;27;37818;-58
2022/03/02 12:27:17;;;;;;;27.23;17.58;;;12.70;50.10;;;;;;5090116;27;35962;-58
2022/03/02 12:29:54;;;;;;;26.27;17.40;;;12.80;50.50;;;;;;5089530;27;37129;-58
2022/03/02 12:32:22;;;;;;;26.05;15.82;;;12.70;50.40;;;;;;5089160;27;37535;-58
2022/03/02 12:34:51;;;;;;;25.65;16.30;;;12.60;49.90;;;;;;5089095;27;37043;-58
2022/03/02 12:37:20;;;;;;;22.67;16.15;;;12.60;49.80;;;;;;5088750;27;37881;-58
2022/03/02 12:39:50;;;;;;;24.65;16.38;;;12.50;50.50;;;;;;5089631;27;35857;-58
2022/03/02 12:42:18;;;;;;;24.60;16.02;;;12.40;50.20;;;;;;5089099;27;37790;-58
2022/03/02 12:44:47;;;;;;;24.73;16.23;;;12.40;50.40;;;;;;5090355;27;37524;-58
2022/03/02 12:47:16;;;;;;;28.92;17.63;;;12.30;50.30;;;;;;5090354;27;37163;-58